Thornton, CO

11:49 AM MDT af September 19, 2014 (GMT -0600)
Northmoor Subdivision - Central Broomfield | Change Station
CLOSE
Current Station
Personal Weather Stations
Location: Broomfield, CO
Elevation: 5384 ft
Nearby Weather Stations

Elev 5384 ft 39.94 °N, 105.05 °W | Updated 1 second ago

klor
klor
80.6 °f
Feels Like 79 °f
N
2.2
vint baytevdik vint from tsmz
Gusts 8.3 mph

haynt
High -- | Low -- °f
--% Chance of Precip.
Yesterday
High -- | Low -- °f
Precip. -- in
6:45 AM 7:02 PM
Waning Crescent, 18% visible
druk 30.07 in
zeevdikeyt 50.0 mayln
Clouds Few 12000 ft
hitsindeks 79 °f
toypunkt 45 °f
faykhtkeyt 29%
Rainfall 0.00 in
Snow Depth 0 in , 0 in , 0 in
UV 6 out of 12
Pollen 7.50 out of 12
Ozone Good
PM2.5 Moderate
Flu Activity Not available.
METAR KBJC 191650Z 34006KT 50SM FEW120 23/07 A3007

More Conditions Fewer Conditions

druk 30.07 in
zeevdikeyt 50.0 mayln
Clouds Few 12000 ft
hitsindeks 79 °f
toypunkt 45 °f
faykhtkeyt 29%
Rainfall 0.00 in
Snow Depth 0 in , 0 in , 0 in
UV 6 out of 12
Pollen 7.50 out of 12
Ozone Good
PM2.5 Moderate
Flu Activity Not available.
METAR KBJC 191650Z 34006KT 50SM FEW120 23/07 A3007

More Conditions Fewer Conditions

10-Day Weather Forecast

Almanac

Astronomy

Sep. 19, 2014 Rise Set
Actual Time 6:45 AM MDT 7:02 PM MDT
Civil Twilight 6:17 AM MDT 7:29 PM MDT
Nautical Twilight 5:46 AM MDT 8:00 PM MDT
Astronomical Twilight 5:13 AM MDT 8:33 PM MDT
Moon 2:32 AM MDT 4:32 PM MDT
Length Of Visible Light 13h 11m
Length of Day
12h 17m
Tomorrow will be 2m 36s shorter.
Waning Crescent, 18% of the Moon is Illuminated
haynt
Waning Crescent
Sep 24
New
Oct 1
First Quarter
Oct 8
Full
Oct 15
Last Quarter

Today's Extremes

State Highs State Lows

Community

WunderPhotos

Upload Photos

1,754,668 photos uploaded!

Nearby

Air Quality

  Air Quality AQ Index Pollutant
Yesterday Moderate
OZONE
Yesterday Good
PM10
Current Moderate
PM2.5
Current Good
OZONE
fraytik Moderate
OZONE
fraytik Good
PM2.5

Snow Depth

Station Depth Elevation
Lizard Head Pass 0 in 10200 ft
Red Mountain Pass 0 in 11150 ft
Lily Pond 0 in 11000 ft
Beaver Divide 0 in 8280 ft
Scotch Creek 0 in 9100 ft

Earthquake Activity

City Distance Mag. Time & Date
No recent earthquake activity has been reported nearby.
Minimum magnitude displayed is 2.5.

Coastal Water Temperatures

plats temperatur
No Stations Reporting

Nearby Weather Stations